Flight Track Log - Related Links

Times and Time Zones

All times are in EDT time to prevent confusion due to time zone crossing. See the SKW4764 flight status page for this flight to view local times or setup timezone preferences in your user account.

Time Position Orientation Groundspeed Altitude Reporting Facility
EDT Latitude Longitude Course Direction KTS MPH feet Rate Location/Type
Tue 05:19:30 PM 40.8000 -111.9789 North 165 190 4,900  Level Salt Lake Center
Tue 05:19:55 PM 40.8156 -111.9775 North 160 184 5,600 1,586 Climbing Salt Lake Center
Tue 05:20:57 PM 40.8772 -111.9856 354° North 236 272 7,200 2,226 Climbing Salt Lake Center
Tue 05:21:59 PM 40.9569 -111.9956 355° North 286 329 10,200 2,806 Climbing Salt Lake Center
Tue 05:23:01 PM 41.0342 -111.9525 23° Northeast 297 342 13,000 2,661 Climbing Salt Lake Center
Tue 05:24:03 PM 41.1142 -111.8994 27° Northeast 312 359 15,700 2,098 Climbing Salt Lake Center
Tue 05:25:04 PM 41.1967 -111.8450 26° Northeast 324 373 17,300 1,805 Climbing Salt Lake Center
Tue 05:26:06 PM 41.2878 -111.7814 28° Northeast 365 420 19,400 1,984 Climbing Salt Lake Center
Tue 05:27:08 PM 41.3981 -111.7067 27° Northeast 372 428 21,400 1,742 Climbing Salt Lake Center
Tue 05:28:10 PM 41.4972 -111.6544 22° Northeast 382 440 23,000 1,355 Climbing Salt Lake Center
Tue 05:29:12 PM 41.5972 -111.5961 24° Northeast 390 449 24,200 1,161 Climbing Salt Lake Center
Tue 05:30:14 PM 41.7019 -111.5861 North 395 455 25,400 1,113 Climbing Salt Lake Center
Tue 05:31:16 PM 41.8067 -111.6322 342° North 397 457 26,500 968 Climbing Salt Lake Center
Tue 05:32:18 PM 41.9103 -111.6794 341° North 395 455 27,400 1,113 Climbing Salt Lake Center
Tue 05:33:20 PM 42.0400 -111.7367 342° North 406 467 28,800 919 Climbing Salt Lake Center
Tue 05:34:22 PM 42.1472 -111.7853 341° North 408 470 29,300 774 Climbing Salt Lake Center
Tue 05:35:24 PM 42.2550 -111.8325 342° North 408 470 30,400 1,065 Climbing Salt Lake Center
Tue 05:36:26 PM 42.3611 -111.8794 342° North 403 464 31,500 774 Climbing Salt Lake Center
Tue 05:37:28 PM 42.4650 -111.9239 342° North 395 455 32,000 242 Climbing Salt Lake Center
Tue 05:38:30 PM 42.5719 -111.9722 342° North 404 465 32,000  Level Salt Lake Center
Tue 05:39:32 PM 42.7042 -112.0333 341° North 418 481 32,000  Level Salt Lake Center
Tue 05:40:34 PM 42.8161 -112.0842 342° North 426 490 32,000  Level Salt Lake Center
Tue 05:41:36 PM 42.9261 -112.1322 342° North 432 497 32,000  Level Salt Lake Center
Tue 05:42:38 PM 43.0558 -112.1922 341° North 439 505 32,000  Level Salt Lake Center
Tue 05:43:40 PM 43.1633 -112.2403 342° North 426 490 32,000  Level Salt Lake Center
Tue 05:44:42 PM 43.2828 -112.2969 341° North 407 468 32,000  Level Salt Lake Center
Tue 05:45:43 PM 43.3822 -112.3417 342° North 397 457 32,000  Level Salt Lake Center
Tue 05:46:45 PM 43.4953 -112.3925 342° North 384 442 32,000  Level Salt Lake Center
Tue 05:47:47 PM 43.5928 -112.4389 341° North 384 442 32,000  Level Salt Lake Center
Tue 05:48:49 PM 43.7053 -112.4908 342° North 382 440 32,000  Level Salt Lake Center
Tue 05:49:51 PM 43.8022 -112.5367 341° North 383 441 32,000  Level Salt Lake Center
Tue 05:50:53 PM 43.9014 -112.5825 342° North 388 447 32,000  Level Salt Lake Center
Tue 05:51:55 PM 44.0189 -112.6394 341° North 396 456 32,000  Level Salt Lake Center
Tue 05:52:57 PM 44.1200 -112.6861 342° North 398 458 32,000  Level Salt Lake Center
Tue 05:53:59 PM 44.2381 -112.7425 341° North 400 460 32,000  Level Salt Lake Center
Tue 05:55:01 PM 44.3411 -112.7917 341° North 406 467 32,000  Level Salt Lake Center
Tue 05:56:03 PM 44.4619 -112.8497 341° North 408 470 32,000  Level Salt Lake Center
Tue 05:57:05 PM 44.5644 -112.9003 341° North 408 470 32,000  Level Salt Lake Center
Tue 05:58:07 PM 44.6678 -112.9511 341° North 410 472 32,000  Level Salt Lake Center
Tue 05:59:09 PM 44.7894 -113.0094 341° North 412 474 32,000  Level Salt Lake Center
Tue 06:00:11 PM 44.8939 -113.0617 340° North 414 476 32,000  Level Salt Lake Center
Tue 06:01:13 PM 45.0150 -113.1206 341° North 413 475 32,000  Level Salt Lake Center
Tue 06:02:15 PM 45.1197 -113.1728 341° North 414 476 32,000  Level Salt Lake Center
Tue 06:03:17 PM 45.2419 -113.2339 341° North 417 480 32,000  Level Salt Lake Center
Tue 06:04:19 PM 45.3553 -113.2897 341° North 417 480 32,000  Level Salt Lake Center
Tue 06:05:21 PM 45.4653 -113.3453 340° North 413 475 32,000 -532 Level Salt Lake Center
Tue 06:06:23 PM 45.5778 -113.4014 341° North 419 482 30,900 -1,597 Descending Salt Lake Center
Tue 06:07:25 PM 45.6850 -113.4558 340° North 403 464 28,700 -2,226 Descending Salt Lake Center
Tue 06:08:27 PM 45.7978 -113.5108 341° North 395 455 26,300 -2,293 Descending Salt Lake Center
Tue 06:09:28 PM 45.8944 -113.5594 341° North 369 425 24,000 -2,000 Descending Salt Lake Center
Tue 06:10:30 PM 45.9883 -113.6067 341° North 356 410 22,200 -1,694 Descending Salt Lake Center
Tue 06:11:32 PM 46.0781 -113.6536 340° North 339 390 20,500 -1,645 Descending Salt Lake Center
Tue 06:12:34 PM 46.1714 -113.6994 341° North 337 388 18,800 -1,548 Descending Salt Lake Center
Tue 06:13:36 PM 46.2567 -113.7472 339° North 330 380 17,300 -1,452 Descending Salt Lake Center
Tue 06:14:38 PM 46.3478 -113.7897 342° North 320 368 15,800 -1,548 Descending Salt Lake Center
Tue 06:15:40 PM 46.4281 -113.8344 339° North 311 358 14,100 -1,742 Descending Salt Lake Center
Tue 06:16:42 PM 46.5042 -113.8736 340° North 294 338 12,200 -1,887 Descending Salt Lake Center
Tue 06:17:44 PM 46.5844 -113.9144 341° North 284 327 10,200 -1,317 Descending Salt Lake Center
Tue 06:18:45 PM 46.6508 -113.9508 339° North 258 297 9,500 -927 Descending Salt Lake Center
Tue 06:19:47 PM 46.7089 -113.9864 337° Northwest 216 249 8,300 -1,210 Descending Salt Lake Center
Tue 06:20:49 PM 46.7597 -114.0203 335° Northwest 202 232 7,000 -1,258 Descending Salt Lake Center
Tue 06:21:51 PM 46.8131 -114.0244 357° North 196 226 5,700 -1,210 Descending Salt Lake Center
Tue 06:22:53 PM 46.8622 -114.0158 North 167 192 4,500 -919 Descending Salt Lake Center
Tue 06:23:55 PM 46.8931 -114.0525 321° Northwest 148 170 3,800 -634 Descending Salt Lake Center
Tue 06:24:56 PM 46.9161 -114.0925 310° West 138 159 3,200 -590 Descending Salt Lake Center

Login

Don't have an account? Register now (free) for customized features, flight alerts, and more!